x

North Hecate Strait (46183) Wave Buoy

10:00am - Fri 22nd Aug 2014 All times are PDT. -7 hours from GMT.

  • Sig Wave height 2.6ft
  • Peak Period 5s
  • Wind
    16mph, 18mph gusts
  • Sea Temp 58°f
  • Air Temp 58°f
  • Sea Pressure 1022.4mb
  • North Hecate Strait
  • North Hecate Strait

More Historic Weather Station data

Upgrade to MSW Pro to gain access to the past 30 days of data for over 8000 Wavebouys and Weather Stations around the globe.

Join Pro

Comparision Forecast

View Surf forecast
   
Fri 08/22 10:00am 2.5ft 5s 16 18 mph 1022.4mb 58f 58f
9:00am 2.5ft 4s 18 20 mph 1022.2mb 58f 58f
8:00am 2.5ft 4s 18 20 mph 1021.8mb 57f 58f
7:00am 3ft 4s 18 22 mph 1021.5mb 58f 58f
6:00am 2.5ft 4s 18 20 mph 1021.5mb 58f 58f
5:00am 3ft 4s 18 22 mph 1021.4mb 58f 58f
4:00am 2.5ft 5s 18 20 mph 1021mb 58f 58f
3:00am 2.5ft 4s 13 16 mph 1020.9mb 58f 58f
2:00am 2.5ft 4s 11 13 mph 1020.4mb 58f 58f
1:00am 2ft 4s 9 11 mph 1020.2mb 58f 58f
12:00am 1.6ft 4s 7 9 mph 1020.3mb 58f 59f
Thu 08/21 11:00pm 1.6ft 3s 11 13 mph 1020.1mb 58f 59f
10:00pm 1.3ft 3s 13 16 mph 1020.1mb 58f 60f
9:00pm 1ft 15s 11 13 mph 1019.7mb 58f 60f
8:00pm 0.7ft 14s 11 13 mph 1019.4mb 58f 60f
7:00pm 0.7ft 15s 9 11 mph 1019.2mb 58f 60f
6:00pm 0.7ft 13s 9
mph
1019.1mb 58f 60f
5:00pm 1ft 14s 9
mph
1019.1mb 58f 59f
4:00pm 1ft 16s 9 11 mph 1019.2mb 58f 58f
3:00pm 1ft 15s 9 11 mph 1019.2mb 58f 57f
2:00pm 1ft 16s 9
mph
1018.9mb 58f 56f
1:00pm 0.7ft 14s 9 11 mph 1018.7mb 58f 56f
12:00pm 0.7ft 14s 7
mph
1018.3mb 58f 58f
11:00am 0.7ft 14s 9
mph
1018mb 57f 58f
10:00am 0.7ft 14s 2 4 mph 1017.9mb 57f 58f
9:00am 0.7ft 14s  -  2 mph 1017.8mb 57f 58f
8:00am 0.7ft 15s 2
mph
1017.4mb 57f 59f
7:00am 0.7ft 15s 2
mph
1017mb 57f 57f
6:00am 0.7ft 16s 2
mph
1016.7mb 57f 56f
5:00am 0.7ft 16s  -  mph 1016.5mb 57f 56f
4:00am 0.7ft 16s 2
mph
1016.3mb 58f 57f
3:00am 0.7ft 15s  -  mph 1016.1mb 57f 57f
2:00am 0.7ft 16s 2 4 mph 1015.9mb 57f 57f
1:00am 0.7ft 16s 2
mph
1015.7mb 58f 57f
12:00am 0.7ft 15s 2
mph
1015.6mb 58f 58f
Wed 08/20 11:00pm 0.7ft 15s  -  mph 1015.4mb 58f 58f
10:00pm 0.7ft 16s 2
mph
1015.2mb 58f 58f
9:00pm 0.7ft 14s 2 4 mph 1014.9mb 58f 58f
8:00pm 0.7ft 6s 2
mph
1014.7mb 58f 58f
7:00pm 0.7ft 16s  -  2 mph 1014.9mb 58f 58f
6:00pm 0.7ft 16s 2
mph
1014.9mb 58f 58f
5:00pm 0.7ft 15s 4 7 mph 1014.9mb 58f 58f
4:00pm 1ft 15s 7
mph
1014.9mb 58f 58f
3:00pm 1ft 3s 7 9 mph 1014.9mb 58f 58f
2:00pm 1ft 3s 7 9 mph 1015mb 58f 58f
1:00pm 1.3ft 3s 7 9 mph 1015.1mb 57f 58f
12:00pm 1.3ft 4s 9 11 mph 1014.8mb 57f 58f
11:00am 1.6ft 4s 11 13 mph 1014.7mb 57f 57f
10:00am 2ft 4s 11 13 mph 1014.4mb 57f 57f
9:00am 2ft 4s 13
mph
1014.5mb 56f 57f
8:00am 2ft 4s 11 13 mph 1014.3mb 56f 57f
7:00am 2.5ft 4s 13 16 mph 1014.4mb 56f 57f
6:00am 2.5ft 4s 13 16 mph 1014.3mb 56f 57f
5:00am 3ft 4s 16 18 mph 1014.2mb 56f 57f
4:00am 3.5ft 4s 16 18 mph 1014.3mb 56f 57f
3:00am 3.5ft 5s 18 20 mph 1014.3mb 56f 57f
2:00am 3.5ft 5s 18 22 mph 1014.1mb 57f 57f
1:00am 3.5ft 5s 20 25 mph 1014mb 57f 58f
12:00am 4ft 5s 20 25 mph 1013.9mb 57f 58f
Tue 08/19 11:00pm 4ft 5s 20 25 mph 1013.9mb 58f 58f
10:00pm 3.5ft 5s 18 22 mph 1013.9mb 58f 59f
9:00pm 3.5ft 5s 18 22 mph 1014.1mb 58f 59f
8:00pm 3ft 4s 20 22 mph 1013.7mb 58f 59f
7:00pm 3ft 4s 20 22 mph 1014.1mb 59f 59f
6:00pm 2.5ft 4s 20 22 mph 1014.4mb 59f 60f
5:00pm 1.6ft 4s 18 22 mph 1014.9mb 59f 60f
4:00pm 1.6ft 4s 13 16 mph 1015.1mb 59f 60f
3:00pm 1.6ft 3s 13 16 mph 1015.3mb 59f 59f
2:00pm 2ft 4s 13 16 mph 1015.6mb 59f 58f
1:00pm 2ft 4s 13 18 mph 1015.6mb 59f 58f
12:00pm 2.5ft 4s 11 13 mph 1015.5mb 59f 58f
11:00am 2.5ft 4s 13 18 mph 1015.4mb 59f 58f
10:00am 2.5ft 4s 16 18 mph 1015.6mb 58f 58f
9:00am 2.5ft 4s 18 20 mph 1015.5mb 58f 58f
8:00am 2.5ft 4s 18 22 mph 1015.3mb 59f 58f
7:00am 3ft 4s 18 22 mph 1015.4mb 59f 57f
6:00am 3ft 4s 18 20 mph 1015.7mb 58f 58f
5:00am 3ft 4s 18 20 mph 1015.8mb 58f 58f
4:00am 3.5ft 4s 20 22 mph 1015.8mb 58f 58f
3:00am 3.5ft 4s 18 22 mph 1015.8mb 58f 58f
2:00am 3ft 4s 20 25 mph 1016mb 58f 58f
1:00am 2.5ft 4s 20 22 mph 1016.1mb 58f 58f
12:00am 2.5ft 4s 18 22 mph 1016.2mb 58f 58f
Mon 08/18 11:00pm 2ft 4s 13 18 mph 1016.2mb 58f 59f
10:00pm 1.6ft 4s 11 13 mph 1016.3mb 58f 59f
9:00pm 1.3ft 10s 11 13 mph 1016.4mb 58f 59f
8:00pm 1.3ft 11s 9 11 mph 1016.7mb 58f 59f
7:00pm 1ft 11s 9 11 mph 1017mb 59f 60f